Aérodrome :
LOGIN :

S'inscrire | Disclaimer

   EN    FR    IT 

 










Légende :    VFR   VFR Marginal   IFR   IFR Intensif   IFR Très Intensif
Visi : 
Plafond : 
>= 8 km
>= 3000ft
5 à 8 km
1000 à 3000 ft
1500m à 5 km
500 à 1000 ft
800 à 1500m
200 à 500 ft
< 800m
< 200 ft
Symboles :   Orages  Brouillard  Fortes neiges  Fortes précipitations  Vent > 20 kt
SIGMETs :   Divers  Orages  Givrage  Turbulence  Onde Orograph.  Cendres Volcan.







- Altitude de l'aérodrome : 63 ft
- Code IATA : BZM


EHWO - Woensdrecht Airbase

DERNIER METAR :
  • 170155Z AUTO 24008KT 9999 OVC026 15/12 Q1021 BLU

METARs EXPIRÉS :
  • 170145Z AUTO 24008KT 9999 OVC025 15/12 Q1021 BLU
  • 170125Z AUTO 24006KT 9999 BKN022 OVC025 15/13 Q1021 WHT
  • 170108Z AUTO 25007KT 9999 OVC024 15/13 Q1021 WHT
  • 170055Z AUTO 25006KT 9999 BKN027 BKN150 14/13 Q1021 BLU
  • 170025Z AUTO 25005KT 9999 NCD 14/13 Q1020 BLU
  • 162355Z AUTO 25007KT 230V290 9999 BKN150 15/14 Q1020 BLU
  • 162331Z AUTO 25005KT 230V300 9999 FEW016 15/14 Q1020 BLU
  • 162325Z AUTO 25005KT 9999 SCT016 BKN150 15/14 Q1020 WHT
  • 162255Z AUTO 24005KT 9999 OVC150 16/14 Q1020 BLU

Prévision TAF périmée.
Pas de NOTAMs connus pour ce terrain.



MET'MAP, la Météo Aéronautique d'un coup d'oeil ! - Copyright ORBIFLY Décembre 2007 - Disclaimer

ORBIFLY MET'MAP TEAM :

Programmation & Développement : Alexandra Zaïnal
Conception & Développement : Baudouin d'Aumeries
Co-Programmation & Développement : Marc-Olivier Méhu
Soutien technique & logistique : Manuel Goepfert

Contact : metmap@orbifly.com




SOURCES & CREDITS :

   NOAA